Time;durP1;ratioP1;P1;durP2;ratioP2;P2;SDS_P1;SDS_P2;PMS_P1;PMS_P2;Temp;Humidity;BMP_temperature;BMP_pressure;BME280_temperature;BME280_humidity;BME280_pressure;Samples;Min_cycle;Max_cycle;Signal;HPM_P1;HPM_P2
2022/07/10 00:01:18;;;;;;;;;;;;;;;25.54;36.69;99900.94;5018608;28;19913;-78
2022/07/10 00:03:44;;;;;;;;;;;;;;;25.55;36.68;99895.16;5018618;28;20340;-78
2022/07/10 00:06:09;;;;;;;;;;;;;;;25.48;36.73;99905.69;5018596;28;19920;-79
2022/07/10 00:08:35;;;;;;;;;;;;;;;25.54;36.38;99912.69;5017575;28;19984;-81
2022/07/10 00:11:00;;;;;;;;;;;;;;;25.54;36.39;99909.16;5017588;28;20352;-81
2022/07/10 00:13:25;;;;;;;;;;;;;;;25.55;36.49;99908.84;5017494;28;19947;-82
2022/07/10 00:15:50;;;;;;;;;;;;;;;25.53;36.30;99902.88;5017153;28;19922;-78
2022/07/10 00:18:16;;;;;;;;;;;;;;;25.54;36.25;99907.22;5017405;28;20449;-77
2022/07/10 00:20:41;;;;;;;;;;;;;;;25.53;36.39;99902.88;5016868;28;19917;-77
2022/07/10 00:23:06;;;;;;;;;;;;;;;25.54;36.25;99901.75;5016937;28;19917;-79
2022/07/10 00:25:32;;;;;;;;;;;;;;;25.56;36.26;99902.28;5017187;28;19997;-78
2022/07/10 00:27:57;;;;;;;;;;;;;;;25.56;36.24;99899.53;5017241;28;19920;-79
2022/07/10 00:30:23;;;;;;;;;;;;;;;25.55;36.29;99897.91;4999147;28;20284;-79
2022/07/10 00:32:48;;;;;;;;;;;;;;;25.53;36.14;99902.06;5016598;28;19913;-79
2022/07/10 00:35:13;;;;;;;;;;;;;;;25.56;36.31;99896.81;5016537;28;19914;-79
2022/07/10 00:37:38;;;;;;;;;;;;;;;25.54;36.29;99903.66;5016988;28;19914;-78
2022/07/10 00:40:04;;;;;;;;;;;;;;;25.54;36.42;99901.75;5016596;28;19914;-77
2022/07/10 00:42:29;;;;;;;;;;;;;;;25.54;36.30;99901.75;5016380;28;20326;-77
2022/07/10 00:44:55;;;;;;;;;;;;;;;25.53;36.13;99904.81;5016649;28;19995;-79
2022/07/10 00:47:20;;;;;;;;;;;;;;;25.54;36.41;99900.94;5015211;28;19936;-77
2022/07/10 00:49:45;;;;;;;;;;;;;;;25.57;36.10;99903.06;5016713;28;19913;-79
2022/07/10 00:52:13;;;;;;;;;;;;;;;25.55;36.14;99892.44;5016612;28;19924;-80
2022/07/10 00:54:39;;;;;;;;;;;;;;;25.53;36.06;99894.66;5016406;28;19921;-81
2022/07/10 00:57:05;;;;;;;;;;;;;;;25.55;36.25;99903.38;5015046;28;19920;-77
2022/07/10 00:59:30;;;;;;;;;;;;;;;25.54;36.11;99895.47;5016232;28;19913;-79
2022/07/10 01:01:56;;;;;;;;;;;;;;;25.55;36.14;99902.56;5016533;28;20352;-76
2022/07/10 01:04:21;;;;;;;;;;;;;;;25.54;36.16;99912.69;5016496;28;19917;-78
2022/07/10 01:06:46;;;;;;;;;;;;;;;25.53;36.27;99910.28;5016231;28;19914;-78
2022/07/10 01:09:11;;;;;;;;;;;;;;;25.52;36.12;99912.19;5016031;28;19965;-78
2022/07/10 01:11:37;;;;;;;;;;;;;;;25.53;36.22;99922.03;5015949;28;19921;-78
2022/07/10 01:14:02;;;;;;;;;;;;;;;25.48;36.23;99916.63;5015754;28;20401;-81
2022/07/10 01:16:27;;;;;;;;;;;;;;;25.54;36.23;99912.69;5016335;28;19914;-81
2022/07/10 01:18:53;;;;;;;;;;;;;;;25.50;36.36;99919.88;5014642;28;20287;-81
2022/07/10 01:21:31;;;;;;;;;;;;;;;25.53;36.35;99905.59;5016666;28;19918;-77
2022/07/10 01:23:56;;;;;;;;;;;;;;;25.53;36.04;99915.75;5015914;28;20004;-81
2022/07/10 01:26:23;;;;;;;;;;;;;;;25.53;36.14;99905.59;5015543;28;19997;-77
2022/07/10 01:28:49;;;;;;;;;;;;;;;25.52;36.07;99906.69;5015599;28;19989;-77
2022/07/10 01:31:14;;;;;;;;;;;;;;;25.48;36.04;99906.50;5008783;28;19921;-77
2022/07/10 01:33:39;;;;;;;;;;;;;;;25.52;36.10;99903.97;4996241;28;20264;-79
2022/07/10 01:36:05;;;;;;;;;;;;;;;25.53;36.01;99905.59;4994607;28;19996;-78
2022/07/10 01:38:30;;;;;;;;;;;;;;;25.54;35.99;99909.94;4996341;28;19913;-81
2022/07/10 01:40:55;;;;;;;;;;;;;;;25.55;35.85;99902.56;5005033;28;19917;-78
2022/07/10 01:43:21;;;;;;;;;;;;;;;25.53;35.89;99904.81;5015872;28;20427;-78
2022/07/10 01:45:46;;;;;;;;;;;;;;;25.53;35.98;99913.81;5015601;28;20272;-78
2022/07/10 01:48:11;;;;;;;;;;;;;;;25.54;35.99;99917.34;5015887;28;19943;-78
2022/07/10 01:50:36;;;;;;;;;;;;;;;25.55;35.73;99914.31;5015695;28;19913;-78
2022/07/10 01:53:05;;;;;;;;;;;;;;;25.52;35.92;99909.44;5015246;28;19914;-78
2022/07/10 01:55:31;;;;;;;;;;;;;;;25.53;35.98;99913.81;5015615;28;20363;-80
2022/07/10 01:57:56;;;;;;;;;;;;;;;25.50;35.68;99922.59;5015252;28;19940;-81
2022/07/10 02:00:21;;;;;;;;;;;;;;;25.54;35.60;99915.41;5015057;28;19918;-77
2022/07/10 02:04:40;;;;;;;;;;;;;;;25.54;35.91;99912.69;5015339;28;19925;-77
2022/07/10 02:05:32;;;;;;;;;;;;;;;25.53;35.52;99919.28;5014890;28;20342;-81
2022/07/10 02:07:57;;;;;;;;;;;;;;;25.56;35.51;99915.13;5015185;28;19913;-79
2022/07/10 02:10:22;;;;;;;;;;;;;;;25.55;35.45;99917.06;5014914;28;19920;-78
2022/07/10 02:12:48;;;;;;;;;;;;;;;25.55;35.53;99919.78;5015236;28;19957;-78
2022/07/10 02:15:13;;;;;;;;;;;;;;;25.54;35.46;99926.34;5014887;28;19936;-78
2022/07/10 02:17:38;;;;;;;;;;;;;;;25.54;35.67;99926.34;5015041;28;19944;-77
2022/07/10 02:20:04;;;;;;;;;;;;;;;25.52;35.61;99925.06;5015074;28;19936;-80
2022/07/10 02:22:29;;;;;;;;;;;;;;;25.52;35.49;99909.44;5014236;28;19989;-79
2022/07/10 02:24:54;;;;;;;;;;;;;;;25.52;35.56;99908.63;5014955;28;19945;-80
2022/07/10 02:27:20;;;;;;;;;;;;;;;25.54;35.31;99909.94;5014931;28;19913;-78
2022/07/10 02:29:45;;;;;;;;;;;;;;;25.54;35.21;99909.16;5015069;28;20319;-78
2022/07/10 02:32:10;;;;;;;;;;;;;;;25.53;35.40;99913.00;5014455;28;19913;-77
2022/07/10 02:34:35;;;;;;;;;;;;;;;25.54;35.27;99903.66;5015003;28;19920;-76
2022/07/10 02:37:01;;;;;;;;;;;;;;;25.56;35.22;99923.31;5015034;28;19925;-77
2022/07/10 02:39:26;;;;;;;;;;;;;;;25.55;35.22;99922.53;5014510;28;20275;-79
2022/07/10 02:41:51;;;;;;;;;;;;;;;25.55;34.90;99925.25;5014326;28;19928;-78
2022/07/10 02:44:16;;;;;;;;;;;;;;;25.53;35.09;99930.22;5014731;28;19959;-81
2022/07/10 02:46:42;;;;;;;;;;;;;;;25.53;35.09;99941.16;5013583;28;20253;-77
2022/07/10 02:49:07;;;;;;;;;;;;;;;25.55;35.11;99935.41;5014867;28;20004;-77
2022/07/10 02:51:33;;;;;;;;;;;;;;;25.52;34.90;99938.72;5014906;28;19913;-79
2022/07/10 02:53:58;;;;;;;;;;;;;;;25.53;35.00;99943.91;5014691;28;19960;-78
2022/07/10 02:56:23;;;;;;;;;;;;;;;25.52;34.93;99942.28;5014709;28;20000;-77
2022/07/10 02:58:49;;;;;;;;;;;;;;;25.53;35.14;99943.09;5014271;28;19925;-79
2022/07/10 03:01:14;;;;;;;;;;;;;;;25.51;34.86;99946.13;5014370;28;19913;-80
2022/07/10 03:03:39;;;;;;;;;;;;;;;25.52;34.92;99938.72;5014136;28;19976;-78
2022/07/10 03:06:04;;;;;;;;;;;;;;;25.53;34.74;99932.97;5014474;28;19919;-77
2022/07/10 03:08:30;;;;;;;;;;;;;;;25.52;34.53;99927.78;5014586;28;19936;-78
2022/07/10 03:10:55;;;;;;;;;;;;;;;25.52;34.81;99942.28;5014761;28;19920;-78
2022/07/10 03:13:20;;;;;;;;;;;;;;;25.54;34.91;99950.19;5014391;28;19966;-78
2022/07/10 03:15:46;;;;;;;;;;;;;;;25.52;34.82;99958.69;5013366;28;19968;-78
2022/07/10 03:18:11;;;;;;;;;;;;;;;25.53;34.94;99954.84;5014342;28;19971;-80
2022/07/10 03:20:36;;;;;;;;;;;;;;;25.49;34.56;99959.28;5013970;28;19914;-79
2022/07/10 03:23:02;;;;;;;;;;;;;;;25.51;34.67;99957.06;5014649;28;19917;-78
2022/07/10 03:25:27;;;;;;;;;;;;;;;25.51;34.60;99951.59;5014312;28;20383;-76
2022/07/10 03:27:52;;;;;;;;;;;;;;;25.46;34.90;99955.22;5014053;28;19996;-78
2022/07/10 03:30:19;;;;;;;;;;;;;;;25.51;34.73;99964.44;5014323;28;19914;-78
2022/07/10 03:32:45;;;;;;;;;;;;;;;25.48;34.87;99954.94;5015081;28;19957;-78
2022/07/10 03:35:10;;;;;;;;;;;;;;;25.47;34.85;99958.75;5017339;28;20418;-77
2022/07/10 03:37:35;;;;;;;;;;;;;;;25.52;34.90;99968.81;5017581;28;19914;-78
2022/07/10 03:40:00;;;;;;;;;;;;;;;25.51;35.03;99969.91;5017584;28;19919;-80
2022/07/10 03:42:26;;;;;;;;;;;;;;;25.49;35.00;99964.75;5017717;28;19971;-82
2022/07/10 03:44:51;;;;;;;;;;;;;;;25.49;34.96;99951.06;5017910;28;20253;-77
2022/07/10 03:47:16;;;;;;;;;;;;;;;25.53;34.99;99962.25;5017659;28;19917;-77
2022/07/10 03:49:41;;;;;;;;;;;;;;;25.48;34.95;99958.47;5016579;28;20439;-78
2022/07/10 03:52:07;;;;;;;;;;;;;;;25.51;35.23;99959.81;5017581;28;19967;-78
2022/07/10 03:54:32;;;;;;;;;;;;;;;25.50;35.26;99966.38;5017582;28;19996;-78
2022/07/10 03:59:41;;;;;;;;;;;;;;;25.51;35.27;99962.53;5017523;28;20407;-78
2022/07/10 04:02:06;;;;;;;;;;;;;;;25.52;35.48;99957.88;5017221;28;19917;-78
2022/07/10 04:04:32;;;;;;;;;;;;;;;25.53;35.23;99954.84;5017279;28;20374;-79
2022/07/10 04:06:57;;;;;;;;;;;;;;;25.51;35.28;99959.81;5017018;28;19917;-79
2022/07/10 04:09:22;;;;;;;;;;;;;;;25.51;35.43;99957.06;5017384;28;20000;-81
2022/07/10 04:11:48;;;;;;;;;;;;;;;25.49;35.49;99965.56;5017185;28;19913;-78
2022/07/10 04:14:13;;;;;;;;;;;;;;;25.45;35.77;99961.78;5017326;28;19917;-78
2022/07/10 04:16:38;;;;;;;;;;;;;;;25.48;35.67;99960.41;5017553;28;20344;-78
2022/07/10 04:19:03;;;;;;;;;;;;;;;25.46;35.63;99966.16;5017067;28;19913;-78
2022/07/10 04:21:29;;;;;;;;;;;;;;;25.45;35.85;99963.72;5017256;28;19968;-79
2022/07/10 04:23:54;;;;;;;;;;;;;;;25.47;35.77;99975.19;5017137;28;20394;-78
2022/07/10 04:26:19;;;;;;;;;;;;;;;25.41;35.88;99968.19;5017594;28;19913;-80
2022/07/10 04:28:45;;;;;;;;;;;;;;;25.44;35.96;99978.50;5017012;28;20279;-80
2022/07/10 04:31:10;;;;;;;;;;;;;;;25.45;35.78;99969.19;5017485;28;19913;-79
2022/07/10 04:33:35;;;;;;;;;;;;;;;25.44;35.69;99970.28;5016975;28;20360;-79
2022/07/10 04:36:00;;;;;;;;;;;;;;;25.43;35.74;99974.16;5017508;28;19918;-78
2022/07/10 04:38:26;;;;;;;;;;;;;;;25.39;35.79;99970.38;5017301;28;19960;-78
2022/07/10 04:40:51;;;;;;;;;;;;;;;25.41;35.81;99979.91;5016522;28;20315;-78
2022/07/10 04:43:16;;;;;;;;;;;;;;;25.41;35.73;99973.66;5016889;28;19913;-78
2022/07/10 04:45:41;;;;;;;;;;;;;;;25.35;36.00;99974.81;5016271;28;19925;-80
2022/07/10 04:48:07;;;;;;;;;;;;;;;25.33;36.06;99971.56;5016928;28;20279;-82
2022/07/10 04:50:32;;;;;;;;;;;;;;;25.35;35.62;99967.41;5016478;28;19914;-79
2022/07/10 04:52:57;;;;;;;;;;;;;;;25.36;35.87;99977.25;5016638;28;19964;-79
2022/07/10 04:55:23;;;;;;;;;;;;;;;25.27;35.91;99981.78;5016874;28;19992;-78
2022/07/10 04:57:48;;;;;;;;;;;;;;;25.31;35.63;99980.06;5016811;28;19913;-78
2022/07/10 05:00:13;;;;;;;;;;;;;;;25.29;35.60;99977.63;5016762;28;20367;-78
2022/07/10 05:02:39;;;;;;;;;;;;;;;25.29;35.65;99985.84;5016830;28;19922;-79
2022/07/10 05:05:04;;;;;;;;;;;;;;;25.22;35.62;99982.63;5016509;28;20344;-81
2022/07/10 05:07:29;;;;;;;;;;;;;;;25.33;35.61;99982.50;5017281;28;19929;-79
2022/07/10 05:09:55;;;;;;;;;;;;;;;25.37;35.51;99994.47;5016546;28;20245;-78
2022/07/10 05:12:20;;;;;;;;;;;;;;;25.24;35.68;99991.34;5016155;28;19956;-78
2022/07/10 05:14:45;;;;;;;;;;;;;;;25.33;35.46;99996.19;5014910;28;19913;-78
2022/07/10 05:17:11;;;;;;;;;;;;;;;25.26;35.53;99997.34;5016230;28;19976;-80
2022/07/10 05:19:36;;;;;;;;;;;;;;;25.29;35.43;99999.50;5015950;28;20341;-80
2022/07/10 05:22:01;;;;;;;;;;;;;;;25.33;35.21;99996.19;5016325;28;19918;-80
2022/07/10 05:24:27;;;;;;;;;;;;;;;25.26;35.23;100005.56;5016518;28;19913;-80
2022/07/10 05:26:52;;;;;;;;;;;;;;;25.29;35.16;100007.72;5015871;28;20363;-78
2022/07/10 05:29:17;;;;;;;;;;;;;;;25.30;35.22;100006.63;5016071;28;19955;-77
2022/07/10 05:31:42;;;;;;;;;;;;;;;25.23;35.33;100006.16;5008455;28;20391;-77
2022/07/10 05:34:08;;;;;;;;;;;;;;;25.20;35.30;100001.25;4996547;28;19917;-79
2022/07/10 05:36:33;;;;;;;;;;;;;;;25.24;35.29;100005.03;4996326;28;19920;-79
2022/07/10 05:38:58;;;;;;;;;;;;;;;25.27;35.04;100000.94;4996161;28;20331;-79
2022/07/10 05:41:23;;;;;;;;;;;;;;;25.24;35.05;100005.03;5008636;28;19917;-81
2022/07/10 05:43:49;;;;;;;;;;;;;;;25.26;35.04;100000.09;5015900;28;20000;-79
2022/07/10 05:46:14;;;;;;;;;;;;;;;25.36;34.75;100003.81;5015545;28;19951;-77
2022/07/10 05:48:39;;;;;;;;;;;;;;;25.21;34.97;100002.88;5015994;28;19920;-77
2022/07/10 05:51:04;;;;;;;;;;;;;;;25.33;34.74;100004.41;5015368;28;20244;-79
2022/07/10 05:53:30;;;;;;;;;;;;;;;25.24;34.80;99996.00;5015877;28;19917;-78
2022/07/10 05:55:59;;;;;;;;;;;;;;;25.20;34.79;100001.25;5015193;28;20374;-80
2022/07/10 05:58:24;;;;;;;;;;;;;;;25.19;34.88;99999.63;5014729;28;19921;-79
2022/07/10 06:00:50;;;;;;;;;;;;;;;25.22;34.73;99999.03;5015798;28;19913;-82
2022/07/10 06:03:15;;;;;;;;;;;;;;;25.19;34.81;99993.34;5015671;28;19917;-79
2022/07/10 06:05:41;;;;;;;;;;;;;;;25.14;34.68;100002.44;5015730;28;19975;-79
2022/07/10 06:08:06;;;;;;;;;;;;;;;25.11;34.57;99997.53;5016120;28;19913;-79
2022/07/10 06:10:31;;;;;;;;;;;;;;;25.15;34.44;100001.31;5015453;28;20043;-79
2022/07/10 06:12:56;;;;;;;;;;;;;;;25.23;34.37;99999.84;5015258;28;19979;-79
2022/07/10 06:15:22;;;;;;;;;;;;;;;25.15;34.41;99998.59;5015427;28;19913;-81
2022/07/10 06:17:47;;;;;;;;;;;;;;;25.28;34.13;99997.06;5015461;28;20366;-78
2022/07/10 06:20:12;;;;;;;;;;;;;;;25.17;34.30;100001.84;5015444;28;19920;-79
2022/07/10 06:22:39;;;;;;;;;;;;;;;25.12;34.13;100010.13;5015201;28;19913;-79
2022/07/10 06:25:05;;;;;;;;;;;;;;;25.14;33.79;100015.28;5014960;28;19913;-78
2022/07/10 06:27:31;;;;;;;;;;;;;;;25.14;33.83;100024.31;5015552;28;19913;-81
2022/07/10 06:29:56;;;;;;;;;;;;;;;25.22;33.78;100015.44;5014895;28;19913;-81
2022/07/10 06:32:24;;;;;;;;;;;;;;;25.24;33.77;100021.44;5014784;28;20008;-78
2022/07/10 06:34:50;;;;;;;;;;;;;;;25.17;33.17;100009.25;5015092;28;19920;-78
2022/07/10 06:37:15;;;;;;;;;;;;;;;25.21;33.68;100011.06;5015199;28;19914;-77
2022/07/10 06:39:41;;;;;;;;;;;;;;;25.24;33.37;100010.50;5014948;28;20276;-77
2022/07/10 06:42:06;;;;;;;;;;;;;;;25.22;32.93;100011.91;5014476;28;20403;-77
2022/07/10 06:44:31;;;;;;;;;;;;;;;25.22;33.26;100015.44;5015187;28;19918;-79
2022/07/10 06:49:40;;;;;;;;;;;;;;;25.17;33.21;100009.25;5000263;28;19920;-79
2022/07/10 06:52:06;;;;;;;;;;;;;;;25.21;32.85;100019.28;5014679;28;19913;-79
2022/07/10 06:54:31;;;;;;;;;;;;;;;25.23;32.99;100018.97;5014724;28;20248;-81
2022/07/10 06:56:57;;;;;;;;;;;;;;;25.20;32.87;100017.66;5014904;28;19955;-82
2022/07/10 06:59:22;;;;;;;;;;;;;;;25.22;32.55;100015.44;5014599;28;19919;-79
2022/07/10 07:01:47;;;;;;;;;;;;;;;25.29;32.04;100017.84;5014982;28;19922;-79
2022/07/10 07:04:12;;;;;;;;;;;;;;;25.27;31.79;100020.88;5014706;28;20315;-78
2022/07/10 07:06:38;;;;;;;;;;;;;;;25.33;31.84;100026.28;5014818;28;19992;-79
2022/07/10 07:09:03;;;;;;;;;;;;;;;25.32;31.81;100022.75;5016650;28;20330;-79
2022/07/10 07:11:28;;;;;;;;;;;;;;;25.32;31.94;100024.63;5018720;28;20315;-81
2022/07/10 07:13:53;;;;;;;;;;;;;;;25.30;31.71;100023.03;5018713;28;19921;-83
2022/07/10 07:16:20;;;;;;;;;;;;;;;25.29;31.78;100021.38;5018936;28;19920;-79
2022/07/10 07:18:51;;;;;;;;;;;;;;;25.32;31.33;100019.16;5018646;28;19960;-76
2022/07/10 07:24:00;;;;;;;;;;;;;;;25.36;31.14;100014.75;5018790;28;20328;-80
2022/07/10 07:26:25;;;;;;;;;;;;;;;25.33;31.28;100018.06;5018450;28;19941;-78
2022/07/10 07:28:51;;;;;;;;;;;;;;;25.40;30.98;100015.78;5018698;28;19966;-78
2022/07/10 07:31:17;;;;;;;;;;;;;;;25.37;31.06;100013.63;5018754;28;19920;-78
2022/07/10 07:33:43;;;;;;;;;;;;;;;25.38;31.15;100018.00;5018844;28;19948;-78
2022/07/10 07:36:08;;;;;;;;;;;;;;;25.43;31.08;100012.44;5018405;28;19949;-81
2022/07/10 07:38:33;;;;;;;;;;;;;;;25.39;30.77;100012.22;5018423;28;20434;-79
2022/07/10 07:40:59;;;;;;;;;;;;;;;25.40;30.56;100013.03;5018563;28;19924;-82
2022/07/10 07:43:24;;;;;;;;;;;;;;;25.46;30.69;100017.34;5018306;28;20100;-79
2022/07/10 07:45:49;;;;;;;;;;;;;;;25.45;30.61;100018.44;5017923;28;19936;-79
2022/07/10 07:48:14;;;;;;;;;;;;;;;25.44;30.68;100019.53;5018154;28;19913;-78
2022/07/10 07:50:40;;;;;;;;;;;;;;;25.47;30.45;100024.41;5018047;28;20252;-77
2022/07/10 07:53:05;;;;;;;;;;;;;;;25.47;30.65;100016.22;5018222;28;19948;-77
2022/07/10 07:55:31;;;;;;;;;;;;;;;25.43;30.75;100017.91;5018009;28;20007;-77
2022/07/10 07:57:56;;;;;;;;;;;;;;;25.43;30.77;100017.91;5017939;28;20316;-78
2022/07/10 08:00:22;;;;;;;;;;;;;;;25.42;30.60;100014.38;5017941;28;19917;-79
2022/07/10 08:02:48;;;;;;;;;;;;;;;25.44;30.48;100016.78;5018157;28;20319;-80
2022/07/10 08:05:13;;;;;;;;;;;;;;;25.48;30.47;100015.13;5017475;28;19913;-81
2022/07/10 08:07:39;;;;;;;;;;;;;;;25.45;30.31;100016.50;5017318;28;19914;-82
2022/07/10 08:10:04;;;;;;;;;;;;;;;25.44;30.54;100014.06;5017617;28;19914;-79
2022/07/10 08:12:30;;;;;;;;;;;;;;;25.43;30.57;100010.53;5018182;28;20395;-79
2022/07/10 08:14:55;;;;;;;;;;;;;;;25.43;30.52;100026.94;5017841;28;19913;-79
2022/07/10 08:17:21;;;;;;;;;;;;;;;25.45;30.67;100023.91;5017274;28;20356;-79
2022/07/10 08:19:46;;;;;;;;;;;;;;;25.45;30.44;100024.72;5016872;28;19913;-79
2022/07/10 08:22:12;;;;;;;;;;;;;;;25.44;30.55;100030.47;4999340;28;20280;-78
2022/07/10 08:24:37;;;;;;;;;;;;;;;25.45;30.33;100032.13;5017671;28;19913;-80
2022/07/10 08:27:02;;;;;;;;;;;;;;;25.45;30.36;100034.84;5017111;28;19913;-80
2022/07/10 08:29:28;;;;;;;;;;;;;;;25.43;30.40;100028.88;5017442;28;19913;-83
2022/07/10 08:31:53;;;;;;;;;;;;;;;25.40;30.17;100032.19;5017078;28;20494;-81
2022/07/10 08:34:18;;;;;;;;;;;;;;;25.42;30.29;100036.25;5017181;28;19913;-78
2022/07/10 08:36:43;;;;;;;;;;;;;;;25.41;30.07;100029.16;5017425;28;19920;-78
2022/07/10 08:39:09;;;;;;;;;;;;;;;25.42;30.01;100032.69;5017527;28;20272;-78
2022/07/10 08:41:34;;;;;;;;;;;;;;;25.42;30.26;100040.91;5016608;28;19917;-79
2022/07/10 08:43:59;;;;;;;;;;;;;;;25.43;30.18;100032.41;5017147;28;20267;-78
2022/07/10 08:46:24;;;;;;;;;;;;;;;25.41;30.29;100042.84;5016924;28;19922;-80
2022/07/10 08:48:50;;;;;;;;;;;;;;;25.40;30.34;100034.91;5016151;28;19942;-80
2022/07/10 08:51:21;;;;;;;;;;;;;;;25.44;30.10;100039.50;5015917;28;20283;-81
2022/07/10 08:53:47;;;;;;;;;;;;;;;25.47;30.08;100043.56;5016011;28;19921;-81
2022/07/10 08:56:12;;;;;;;;;;;;;;;25.47;30.10;100038.94;5015664;28;20355;-81
2022/07/10 08:58:38;;;;;;;;;;;;;;;25.44;30.23;100044.16;5016766;28;19921;-82
2022/07/10 09:01:03;;;;;;;;;;;;;;;25.40;30.38;100038.47;5016576;28;20253;-78
2022/07/10 09:03:29;;;;;;;;;;;;;;;25.46;30.19;100042.75;5017357;28;19921;-78
2022/07/10 09:05:54;;;;;;;;;;;;;;;25.49;30.30;100041.34;5016513;28;19920;-78
2022/07/10 09:08:28;;;;;;;;;;;;;;;25.45;30.19;100046.59;5016377;28;19992;-78
2022/07/10 09:11:12;;;;;;;;;;;;;;;25.42;30.11;100047.22;5016384;28;19913;-78
2022/07/10 09:13:50;;;;;;;;;;;;;;;25.40;30.28;100048.59;5016022;28;19913;-81
2022/07/10 09:16:22;;;;;;;;;;;;;;;25.39;30.45;100052.44;5016304;28;19914;-81
2022/07/10 09:18:48;;;;;;;;;;;;;;;25.38;30.46;100053.56;5015914;28;19913;-80
2022/07/10 09:21:13;;;;;;;;;;;;;;;25.37;30.15;100047.28;5016351;28;19920;-81
2022/07/10 09:23:38;;;;;;;;;;;;;;;25.40;30.11;100054.06;5016308;28;19928;-82
2022/07/10 09:26:04;;;;;;;;;;;;;;;25.39;30.25;100052.44;5015676;28;19967;-81
2022/07/10 09:28:29;;;;;;;;;;;;;;;25.39;30.07;100047.78;5015873;28;20012;-79
2022/07/10 09:30:54;;;;;;;;;;;;;;;25.41;30.18;100053.78;5015883;28;20372;-78
2022/07/10 09:33:26;;;;;;;;;;;;;;;25.42;30.12;100043.63;4996311;28;20387;-78
2022/07/10 09:36:05;;;;;;;;;;;;;;;25.39;30.27;100049.69;4995851;28;19918;-78
2022/07/10 09:38:43;;;;;;;;;;;;;;;25.40;30.08;100045.88;4996196;28;19913;-80
2022/07/10 09:41:14;;;;;;;;;;;;;;;25.41;30.10;100044.75;5006541;28;20004;-80
2022/07/10 09:43:50;;;;;;;;;;;;;;;25.41;30.16;100055.72;5015427;28;19921;-79
2022/07/10 09:46:15;;;;;;;;;;;;;;;25.41;30.09;100050.25;5015506;28;19920;-77
2022/07/10 09:48:41;;;;;;;;;;;;;;;25.47;29.81;100054.50;5015707;28;20332;-79
2022/07/10 09:51:08;;;;;;;;;;;;;;;25.44;29.83;100055.09;5015252;28;20296;-77
2022/07/10 09:53:34;;;;;;;;;;;;;;;25.44;29.88;100066.03;5015163;28;19959;-79
2022/07/10 09:55:59;;;;;;;;;;;;;;;25.45;30.04;100056.72;5015355;28;20004;-78
2022/07/10 09:58:25;;;;;;;;;;;;;;;25.45;29.90;100062.22;4997755;28;20364;-79
2022/07/10 10:00:50;;;;;;;;;;;;;;;25.42;29.83;100063.63;5015310;28;19933;-79
2022/07/10 10:03:15;;;;;;;;;;;;;;;25.41;30.14;100059.25;4998113;28;20332;-80
2022/07/10 10:05:50;;;;;;;;;;;;;;;25.43;30.16;100062.50;5015271;28;19921;-81
2022/07/10 10:08:24;;;;;;;;;;;;;;;25.41;30.21;100061.19;5015280;28;20004;-79
2022/07/10 10:10:50;;;;;;;;;;;;;;;25.41;30.11;100066.66;5014817;28;20370;-79
2022/07/10 10:13:17;;;;;;;;;;;;;;;25.45;30.03;100067.69;5014712;28;19918;-78
2022/07/10 10:15:42;;;;;;;;;;;;;;;25.45;29.84;100067.69;4997104;28;19917;-79
2022/07/10 10:18:07;;;;;;;;;;;;;;;25.43;30.21;100067.16;5014897;28;19920;-81
2022/07/10 10:20:41;;;;;;;;;;;;;;;25.42;30.22;100071.81;4997118;28;20334;-79
2022/07/10 10:23:11;;;;;;;;;;;;;;;25.45;30.18;100063.00;4998216;28;19953;-80
2022/07/10 10:25:36;;;;;;;;;;;;;;;25.48;30.05;100069.81;4997641;28;19968;-81
2022/07/10 10:28:02;;;;;;;;;;;;;;;25.46;30.08;100070.13;4997790;28;19917;-81
2022/07/10 10:30:28;;;;;;;;;;;;;;;25.45;30.01;100078.63;5014421;28;20364;-80
2022/07/10 10:32:53;;;;;;;;;;;;;;;25.47;30.10;100081.88;4996710;28;20000;-80
2022/07/10 10:35:41;;;;;;;;;;;;;;;25.48;30.20;100073.38;5014269;28;19953;-78
2022/07/10 10:38:07;;;;;;;;;;;;;;;25.49;30.01;100064.06;5001305;28;19913;-78
2022/07/10 10:40:32;;;;;;;;;;;;;;;25.48;29.85;100067.09;5014308;28;20379;-78
2022/07/10 10:43:17;;;;;;;;;;;;;;;25.50;29.69;100067.59;5012580;28;19925;-80
2022/07/10 10:45:42;;;;;;;;;;;;;;;25.53;29.65;100058.81;5014592;28;19918;-79
2022/07/10 10:48:08;;;;;;;;;;;;;;;25.48;29.70;100067.09;5014384;28;20479;-78
2022/07/10 10:50:38;;;;;;;;;;;;;;;25.49;30.07;100064.06;5014421;28;19920;-78
2022/07/10 10:53:03;;;;;;;;;;;;;;;25.51;30.04;100068.41;5014493;28;19921;-78
2022/07/10 10:55:29;;;;;;;;;;;;;;;25.54;29.81;100070.56;5014326;28;19989;-78
2022/07/10 10:57:54;;;;;;;;;;;;;;;25.51;29.88;100066.50;5013249;28;19913;-78
2022/07/10 11:00:40;;;;;;;;;;;;;;;25.54;29.72;100070.56;5013351;28;19969;-78
2022/07/10 11:03:11;;;;;;;;;;;;;;;25.52;29.89;100062.66;5014889;28;19928;-78
2022/07/10 11:05:38;;;;;;;;;;;;;;;25.48;29.88;100064.34;5014229;28;19913;-77
2022/07/10 11:08:03;;;;;;;;;;;;;;;25.47;29.91;100059.97;5013992;28;20003;-77
2022/07/10 11:10:31;;;;;;;;;;;;;;;25.46;29.94;100059.19;5014171;28;19953;-78
2022/07/10 11:13:00;;;;;;;;;;;;;;;25.54;29.65;100068.63;5014269;28;19913;-77
2022/07/10 11:15:26;;;;;;;;;;;;;;;25.53;29.67;100063.47;5012849;28;19924;-77
2022/07/10 11:17:51;;;;;;;;;;;;;;;25.55;29.42;100062.06;5014070;28;19914;-78
2022/07/10 11:20:16;;;;;;;;;;;;;;;25.53;29.62;100066.22;5014125;28;19914;-77
2022/07/10 11:23:00;;;;;;;;;;;;;;;25.54;29.65;100065.91;5014174;28;19917;-78
2022/07/10 11:25:35;;;;;;;;;;;;;;;25.52;29.60;100057.19;5014028;28;19992;-78
2022/07/10 11:28:10;;;;;;;;;;;;;;;25.53;29.54;100058.81;5014633;28;19968;-80
2022/07/10 11:30:51;;;;;;;;;;;;;;;25.53;29.68;100052.53;5013449;28;20287;-80
2022/07/10 11:33:16;;;;;;;;;;;;;;;25.49;29.80;100052.28;4998936;28;19918;-78
2022/07/10 11:35:46;;;;;;;;;;;;;;;25.55;29.49;100051.13;4994679;28;19940;-77
2022/07/10 11:38:11;;;;;;;;;;;;;;;25.53;29.56;100058.81;4994452;28;19956;-77
2022/07/10 11:40:37;;;;;;;;;;;;;;;25.51;29.40;100061.03;5000911;28;19954;-79
2022/07/10 11:43:05;;;;;;;;;;;;;;;25.50;29.71;100059.41;5015197;28;19943;-79
2022/07/10 11:45:32;;;;;;;;;;;;;;;25.54;29.33;100060.41;5014776;28;19948;-81
2022/07/10 11:47:57;;;;;;;;;;;;;;;25.53;29.48;100058.00;5014648;28;19936;-80
2022/07/10 11:50:23;;;;;;;;;;;;;;;25.47;29.30;100058.09;5014427;28;19917;-80
2022/07/10 11:52:50;;;;;;;;;;;;;;;25.49;29.37;100057.75;5014388;28;19913;-78
2022/07/10 11:55:19;;;;;;;;;;;;;;;25.39;29.44;100060.63;4998787;28;19913;-79
2022/07/10 11:57:48;;;;;;;;;;;;;;;25.36;29.40;100064.78;5018667;28;19921;-81
2022/07/10 12:00:20;;;;;;;;;;;;;;;25.36;29.32;100059.31;5018041;28;19955;-80
2022/07/10 12:02:45;;;;;;;;;;;;;;;25.33;29.30;100061.84;5018247;28;19917;-80
2022/07/10 12:05:29;;;;;;;;;;;;;;;25.28;29.39;100069.00;5017797;28;19917;-80
2022/07/10 12:07:54;;;;;;;;;;;;;;;25.22;29.45;100067.41;5018096;28;19913;-79
2022/07/10 12:10:20;;;;;;;;;;;;;;;25.18;29.56;100076.47;5017700;28;19914;-81
2022/07/10 12:12:45;;;;;;;;;;;;;;;25.16;29.45;100074.03;5017632;28;20371;-81
2022/07/10 12:15:11;;;;;;;;;;;;;;;25.15;29.68;100075.16;5000242;28;20356;-78
2022/07/10 12:17:36;;;;;;;;;;;;;;;25.16;29.80;100076.75;5017501;28;19955;-78
2022/07/10 12:20:01;;;;;;;;;;;;;;;25.11;30.05;100079.56;4999928;28;19922;-78
2022/07/10 12:22:26;;;;;;;;;;;;;;;25.09;29.96;100076.31;5017113;28;20388;-77
2022/07/10 12:24:52;;;;;;;;;;;;;;;25.07;29.97;100073.88;4999969;28;19917;-77
2022/07/10 12:27:35;;;;;;;;;;;;;;;25.09;29.90;100073.56;5018012;28;20256;-79
2022/07/10 12:30:01;;;;;;;;;;;;;;;25.10;30.04;100067.81;5017357;28;19913;-79
2022/07/10 12:32:27;;;;;;;;;;;;;;;25.11;29.94;100079.56;5017085;28;19913;-79
2022/07/10 12:34:53;;;;;;;;;;;;;;;25.11;29.95;100079.56;4999847;28;19975;-79
2022/07/10 12:37:20;;;;;;;;;;;;;;;25.04;30.05;100081.84;5000283;28;19920;-82
2022/07/10 12:39:54;;;;;;;;;;;;;;;25.07;29.78;100073.06;5017347;28;20000;-78
2022/07/10 12:42:25;;;;;;;;;;;;;;;25.11;30.16;100074.09;5017277;28;20015;-78
2022/07/10 12:44:50;;;;;;;;;;;;;;;25.03;30.11;100072.03;5016880;28;19956;-78